Flight Track Log - Related Links

Times and Time Zones

All times are in EST time to prevent confusion due to time zone crossing. See the N757AN flight status page for this flight to view local times or setup timezone preferences in your user account.

Time Position Orientation Groundspeed Altitude Reporting Facility
EST Latitude Longitude Course Direction KTS MPH feet Rate Location/Type
Mon 11:18:00 PM 36.1903 140.9615 47° Northeast  Level FlightAware Approximate
Mon 11:19:00 PM 36.2962 141.1063 48° Northeast  Level FlightAware Approximate
Mon 11:20:00 PM 36.4020 141.2515 48° Northeast  Level FlightAware Approximate
Mon 11:21:00 PM 36.5076 141.3970 48° Northeast  Level FlightAware Approximate
Mon 11:22:00 PM 36.6131 141.5430 48° Northeast  Level FlightAware Approximate
Mon 11:23:00 PM 36.7183 141.6893 48° Northeast  Level FlightAware Approximate
Mon 11:24:00 PM 36.8234 141.8361 48° Northeast  Level FlightAware Approximate
Mon 11:25:00 PM 36.9204 141.9722 48° Northeast  Level FlightAware Approximate
Mon 11:26:00 PM 37.0250 142.1198 48° Northeast  Level FlightAware Approximate
Mon 11:27:00 PM 37.1295 142.2678 48° Northeast  Level FlightAware Approximate
Mon 11:28:00 PM 37.2338 142.4162 49° Northeast  Level FlightAware Approximate
Mon 11:29:00 PM 37.3379 142.5650 49° Northeast  Level FlightAware Approximate
Mon 11:30:00 PM 37.4418 142.7143 49° Northeast  Level FlightAware Approximate
Mon 11:31:00 PM 37.5457 142.8638 49° Northeast  Level FlightAware Approximate
Mon 11:32:00 PM 37.6493 143.0137 49° Northeast  Level FlightAware Approximate
Mon 11:33:00 PM 37.7528 143.1641 49° Northeast  Level FlightAware Approximate
Mon 11:34:00 PM 37.8561 143.3149 49° Northeast  Level FlightAware Approximate
Mon 11:35:00 PM 37.9591 143.4661 49° Northeast  Level FlightAware Approximate
Mon 11:36:00 PM 38.0620 143.6177 49° Northeast  Level FlightAware Approximate
Mon 11:37:00 PM 38.1647 143.7698 49° Northeast  Level FlightAware Approximate
Mon 11:38:00 PM 38.2672 143.9222 49° Northeast  Level FlightAware Approximate
Mon 11:39:00 PM 38.3695 144.0751 49° Northeast  Level FlightAware Approximate
Mon 11:40:00 PM 38.4716 144.2285 50° Northeast  Level FlightAware Approximate
Mon 11:41:00 PM 38.5735 144.3823 50° Northeast  Level FlightAware Approximate
Mon 11:42:00 PM 38.6752 144.5365 50° Northeast  Level FlightAware Approximate
Mon 11:43:00 PM 38.7767 144.6911 50° Northeast  Level FlightAware Approximate
Mon 11:44:00 PM 38.8780 144.8463 50° Northeast  Level FlightAware Approximate
Mon 11:45:00 PM 38.9791 145.0018 50° Northeast  Level FlightAware Approximate
Mon 11:46:00 PM 39.0800 145.1578 50° Northeast  Level FlightAware Approximate
Mon 11:47:00 PM 39.1806 145.3142 50° Northeast  Level FlightAware Approximate
Mon 11:48:00 PM 39.2811 145.4711 50° Northeast  Level FlightAware Approximate
Mon 11:49:00 PM 39.3813 145.6284 50° Northeast  Level FlightAware Approximate
Mon 11:50:00 PM 39.4814 145.7862 51° Northeast  Level FlightAware Approximate
Mon 11:51:00 PM 39.5812 145.9444 51° Northeast  Level FlightAware Approximate
Mon 11:52:00 PM 39.6808 146.1031 51° Northeast  Level FlightAware Approximate
Mon 11:53:00 PM 39.7802 146.2623 51° Northeast  Level FlightAware Approximate
Mon 11:54:00 PM 39.8794 146.4219 51° Northeast  Level FlightAware Approximate
Mon 11:55:00 PM 39.9783 146.5819 51° Northeast  Level FlightAware Approximate
Mon 11:56:00 PM 40.0770 146.7425 51° Northeast  Level FlightAware Approximate
Mon 11:57:00 PM 40.1755 146.9035 51° Northeast  Level FlightAware Approximate
Mon 11:58:00 PM 40.2738 147.0649 51° Northeast  Level FlightAware Approximate
Mon 11:59:00 PM 40.3719 147.2269 51° Northeast  Level FlightAware Approximate
Tue 12:00:00 AM 40.4697 147.3893 52° Northeast  Level FlightAware Approximate
Tue 12:01:00 AM 40.5673 147.5522 52° Northeast  Level FlightAware Approximate
Tue 12:02:00 AM 40.6647 147.7155 52° Northeast  Level FlightAware Approximate
Tue 12:03:00 AM 40.7618 147.8793 52° Northeast  Level FlightAware Approximate
Tue 12:04:00 AM 40.8588 148.0436 52° Northeast  Level FlightAware Approximate
Tue 12:05:00 AM 40.9554 148.2084 52° Northeast  Level FlightAware Approximate
Tue 12:06:00 AM 41.0519 148.3737 52° Northeast  Level FlightAware Approximate
Tue 12:07:00 AM 41.1481 148.5395 52° Northeast  Level FlightAware Approximate
Tue 12:08:00 AM 41.2441 148.7057 52° Northeast  Level FlightAware Approximate
Tue 12:09:00 AM 41.3398 148.8724 53° Northeast  Level FlightAware Approximate
Tue 12:10:00 AM 41.4353 149.0397 53° Northeast  Level FlightAware Approximate
Tue 12:11:00 AM 41.5305 149.2074 53° Northeast  Level FlightAware Approximate
Tue 12:12:00 AM 41.6255 149.3756 53° Northeast  Level FlightAware Approximate
Tue 12:13:00 AM 41.7203 149.5443 53° Northeast  Level FlightAware Approximate
Tue 12:14:00 AM 41.8148 149.7135 53° Northeast  Level FlightAware Approximate
Tue 12:15:00 AM 41.9090 149.8832 53° Northeast  Level FlightAware Approximate
Tue 12:16:00 AM 42.0031 150.0534 53° Northeast  Level FlightAware Approximate
Tue 12:17:00 AM 42.0968 150.2241 53° Northeast  Level FlightAware Approximate
Tue 12:18:00 AM 42.1903 150.3953 54° Northeast  Level FlightAware Approximate
Tue 12:19:00 AM 42.2836 150.5670 54° Northeast  Level FlightAware Approximate
Tue 12:20:00 AM 42.3765 150.7393 54° Northeast  Level FlightAware Approximate
Tue 12:21:00 AM 42.4693 150.9120 54° Northeast  Level FlightAware Approximate
Tue 12:22:00 AM 42.5617 151.0853 54° Northeast  Level FlightAware Approximate
Tue 12:23:00 AM 42.6539 151.2590 54° Northeast  Level FlightAware Approximate
Tue 12:24:00 AM 42.7459 151.4333 54° Northeast  Level FlightAware Approximate
Tue 12:25:00 AM 42.8376 151.6081 55° Northeast  Level FlightAware Approximate
Tue 12:26:00 AM 42.9289 151.7834 55° Northeast  Level FlightAware Approximate
Tue 12:27:00 AM 43.0200 151.9593 55° Northeast  Level FlightAware Approximate
Tue 12:28:00 AM 43.1108 152.1358 55° Northeast  Level FlightAware Approximate
Tue 12:29:00 AM 43.2013 152.3127 55° Northeast  Level FlightAware Approximate
Tue 12:30:00 AM 43.2916 152.4902 55° Northeast  Level FlightAware Approximate
Tue 12:31:00 AM 43.3816 152.6682 55° Northeast  Level FlightAware Approximate
Tue 12:32:00 AM 43.4713 152.8467 55° Northeast  Level FlightAware Approximate
Tue 12:33:00 AM 43.5607 153.0257 55° Northeast  Level FlightAware Approximate
Tue 12:34:00 AM 43.6499 153.2053 56° Northeast  Level FlightAware Approximate
Tue 12:35:00 AM 43.7388 153.3854 56° Northeast  Level FlightAware Approximate
Tue 12:36:00 AM 43.8273 153.5661 56° Northeast  Level FlightAware Approximate
Tue 12:37:00 AM 43.9156 153.7473 56° Northeast  Level FlightAware Approximate
Tue 12:38:00 AM 44.0037 153.9290 56° Northeast  Level FlightAware Approximate
Tue 12:39:00 AM 44.0914 154.1112 56° Northeast  Level FlightAware Approximate
Tue 12:40:00 AM 44.1788 154.2940 56° Northeast  Level FlightAware Approximate
Tue 12:41:00 AM 44.2660 154.4774 56° Northeast  Level FlightAware Approximate
Tue 12:42:00 AM 44.3528 154.6613 57° Northeast  Level FlightAware Approximate
Tue 12:43:00 AM 44.4394 154.8457 57° Northeast  Level FlightAware Approximate
Tue 12:44:00 AM 44.5256 155.0307 57° Northeast  Level FlightAware Approximate
Tue 12:45:00 AM 44.6116 155.2162 57° Northeast  Level FlightAware Approximate
Tue 12:46:00 AM 44.6973 155.4023 57° Northeast  Level FlightAware Approximate
Tue 12:47:00 AM 44.7826 155.5889 57° Northeast  Level FlightAware Approximate
Tue 12:48:00 AM 44.8676 155.7761 57° Northeast  Level FlightAware Approximate
Tue 12:49:00 AM 44.9524 155.9638 57° Northeast  Level FlightAware Approximate
Tue 12:50:00 AM 45.0368 156.1521 58° Northeast  Level FlightAware Approximate
Tue 12:51:00 AM 45.1209 156.3410 58° Northeast  Level FlightAware Approximate
Tue 12:52:00 AM 45.2048 156.5304 58° Northeast  Level FlightAware Approximate
Tue 12:53:00 AM 45.2882 156.7203 58° Northeast  Level FlightAware Approximate
Tue 12:54:00 AM 45.3714 156.9108 58° Northeast  Level FlightAware Approximate
Tue 12:55:00 AM 45.4543 157.1019 58° Northeast  Level FlightAware Approximate
Tue 12:56:00 AM 45.5368 157.2935 58° Northeast  Level FlightAware Approximate
Tue 12:57:00 AM 45.6190 157.4857 58° Northeast  Level FlightAware Approximate
Tue 12:58:00 AM 45.7010 157.6785 59° Northeast  Level FlightAware Approximate
Tue 12:59:00 AM 45.7825 157.8718 59° Northeast  Level FlightAware Approximate
Tue 01:00:00 AM 45.8638 158.0657 59° Northeast  Level FlightAware Approximate
Tue 01:01:00 AM 45.9447 158.2602 59° Northeast  Level FlightAware Approximate
Tue 01:02:00 AM 46.0253 158.4552 59° Northeast  Level FlightAware Approximate
Tue 01:03:00 AM 46.1055 158.6508 59° Northeast  Level FlightAware Approximate
Tue 01:04:00 AM 46.1855 158.8470 59° Northeast  Level FlightAware Approximate
Tue 01:05:00 AM 46.2650 159.0437 60° Northeast  Level FlightAware Approximate
Tue 01:06:00 AM 46.3443 159.2410 60° Northeast  Level FlightAware Approximate
Tue 01:07:00 AM 46.4232 159.4389 60° Northeast  Level FlightAware Approximate
Tue 01:08:00 AM 46.5018 159.6373 60° Northeast  Level FlightAware Approximate
Tue 01:09:00 AM 46.5800 159.8363 60° Northeast  Level FlightAware Approximate
Tue 01:10:00 AM 46.6578 160.0359 60° Northeast  Level FlightAware Approximate
Tue 01:11:00 AM 46.7354 160.2361 60° Northeast  Level FlightAware Approximate
Tue 01:12:00 AM 46.8125 160.4368 61° Northeast  Level FlightAware Approximate
Tue 01:13:00 AM 46.8894 160.6382 61° Northeast  Level FlightAware Approximate
Tue 01:14:00 AM 46.9658 160.8401 61° Northeast  Level FlightAware Approximate
Tue 01:15:00 AM 47.0419 161.0425 61° Northeast  Level FlightAware Approximate
Tue 01:16:00 AM 47.1177 161.2456 61° Northeast  Level FlightAware Approximate
Tue 01:17:00 AM 47.1931 161.4492 61° Northeast  Level FlightAware Approximate
Tue 01:18:00 AM 47.2681 161.6534 62° Northeast  Level FlightAware Approximate
Tue 01:19:00 AM 47.3428 161.8582 62° Northeast  Level FlightAware Approximate
Tue 01:20:00 AM 47.4171 162.0636 62° Northeast  Level FlightAware Approximate
Tue 01:21:00 AM 47.4910 162.2695 62° Northeast  Level FlightAware Approximate
Tue 01:22:00 AM 47.5646 162.4760 62° Northeast  Level FlightAware Approximate
Tue 01:23:00 AM 47.6378 162.6831 62° Northeast  Level FlightAware Approximate
Tue 01:24:00 AM 47.7106 162.8908 62° Northeast  Level FlightAware Approximate
Tue 01:25:00 AM 47.7831 163.0991 63° Northeast  Level FlightAware Approximate
Tue 01:26:00 AM 47.8551 163.3079 63° Northeast  Level FlightAware Approximate
Tue 01:27:00 AM 47.9268 163.5173 63° Northeast  Level FlightAware Approximate
Tue 01:28:00 AM 47.9981 163.7273 63° Northeast  Level FlightAware Approximate
Tue 01:29:00 AM 48.0691 163.9379 63° Northeast  Level FlightAware Approximate
Tue 01:30:00 AM 48.1396 164.1491 63° Northeast  Level FlightAware Approximate
Tue 01:31:00 AM 48.2098 164.3608 64° Northeast  Level FlightAware Approximate
Tue 01:32:00 AM 48.2795 164.5731 64° Northeast  Level FlightAware Approximate
Tue 01:32:22 AM 47.5500 161.3333 55° Northeast 537 618 33,000  Level Anchorage Center
Tue 01:35:04 AM 47.8167 161.8833 55° Northeast 534 615 33,000  Level Anchorage Center
Tue 01:44:40 AM 48.6167 163.6333 56° Northeast 527 606 33,000  Level Anchorage Center
Tue 01:54:17 AM 49.3667 165.4167 58° Northeast 518 596 33,000  Level Anchorage Center
Tue 01:58:44 AM 49.7000 166.2167 58° Northeast 513 590 33,000  Level Anchorage Center
Tue 02:03:53 AM 50.1000 167.2333 59° Northeast 513 590 33,000  Level Anchorage Center
Tue 02:13:24 AM 50.8000 169.1000 61° Northeast 505 581 33,000  Level Anchorage Center
Tue 02:14:04 AM 50.8167 169.2000 62° Northeast 520 598 33,000  Level Anchorage Center
Tue 02:15:00 AM 50.8863 169.3584 61° Northeast 513 590 33,000  Level FlightAware Transoceanic
Tue 02:15:04 AM 50.8833 169.3833 60° Northeast 520 598 33,000  Level Anchorage Center
Tue 02:16:00 AM 50.9558 169.5551 61° Northeast 513 590 33,000  Level FlightAware Transoceanic
Tue 02:16:04 AM 50.9667 169.5833 56° Northeast 520 598 33,000  Level Anchorage Center
Tue 02:17:00 AM 51.0250 169.7524 61° Northeast 513 590 33,000 600 Level FlightAware Transoceanic
Tue 02:17:04 AM 51.0167 169.7667 67° East 520 598 33,600  Climbing Anchorage Center
Tue 02:18:00 AM 51.0939 169.9503 61° Northeast 513 590 33,000 1,100 Descending FlightAware Transoceanic
Tue 02:18:04 AM 51.1000 169.9833 58° Northeast 500 575 34,700  Climbing Anchorage Center
Tue 02:19:00 AM 51.1863 170.2105 62° Northeast 505 581 33,000 295 Descending FlightAware Transoceanic
Tue 02:19:05 AM 51.1667 170.1833 62° Northeast 510 587 35,000 1,875 Climbing Anchorage Center
Tue 02:20:04 AM 51.2333 170.3500 57° Northeast 500 575 35,000  Level Anchorage Center
Tue 02:21:05 AM 51.3000 170.5667 64° Northeast 500 575 35,000  Level Anchorage Center
Tue 02:22:05 AM 51.3667 170.7500 60° Northeast 500 575 35,000  Level Anchorage Center
Tue 02:23:05 AM 51.4333 170.9667 64° Northeast 500 575 35,000  Level Anchorage Center
Tue 02:24:05 AM 51.4833 171.1333 64° Northeast 500 575 35,000  Level Anchorage Center
Tue 02:25:05 AM 51.5167 171.3667 77° East 500 575 35,000  Level Anchorage Center
Tue 02:26:05 AM 51.5333 171.5667 82° East 510 587 35,000  Level Anchorage Center
Tue 02:27:05 AM 51.5500 171.8167 84° East 510 587 35,000  Level Anchorage Center
Tue 02:28:05 AM 51.5667 172.0500 83° East 500 575 35,000  Level Anchorage Center
Tue 02:29:05 AM 51.5833 172.2500 82° East 500 575 35,000  Level Anchorage Center
Tue 02:30:05 AM 51.6167 172.4833 77° East 500 575 35,000  Level Anchorage Center
Tue 02:31:05 AM 51.6167 172.6833 90° East 500 575 35,000  Level Anchorage Center
Tue 02:32:06 AM 51.6500 172.9333 78° East 500 575 35,000  Level Anchorage Center
Tue 02:33:05 AM 51.6500 173.1167 90° East 510 587 35,000  Level Anchorage Center
Tue 02:34:05 AM 51.6667 173.3667 84° East 500 575 35,000  Level Anchorage Center
Tue 02:35:06 AM 51.7000 173.6000 77° East 500 575 35,000  Level Anchorage Center
Tue 02:36:06 AM 51.7000 173.8000 90° East 500 575 35,000  Level Anchorage Center
Tue 02:37:06 AM 51.7167 174.0333 83° East 500 575 35,000  Level Anchorage Center
Tue 02:38:06 AM 51.7333 174.2333 82° East 500 575 35,000  Level Anchorage Center
Tue 02:39:06 AM 51.7500 174.4667 83° East 500 575 35,000  Level Anchorage Center
Tue 02:40:06 AM 51.7667 174.6667 82° East 500 575 35,000  Level Anchorage Center
Tue 02:41:06 AM 51.7667 174.9000 90° East 490 564 35,000  Level Anchorage Center
Tue 02:42:06 AM 51.7833 175.1333 83° East 490 564 35,000  Level Anchorage Center
Tue 02:43:06 AM 51.8000 175.3333 82° East 480 552 35,000  Level Anchorage Center
Tue 02:44:06 AM 51.8167 175.5667 83° East 490 564 35,000  Level Anchorage Center
Tue 02:45:06 AM 51.8167 175.7667 90° East 490 564 35,000  Level Anchorage Center
Tue 02:46:06 AM 51.8333 176.0000 83° East 490 564 35,000  Level Anchorage Center
Tue 02:47:06 AM 51.8500 176.1833 82° East 480 552 35,000  Level Anchorage Center
Tue 02:48:07 AM 51.8500 176.4167 90° East 480 552 35,000  Level Anchorage Center
Tue 02:49:06 AM 51.8667 176.6500 83° East 480 552 35,000  Level Anchorage Center
Tue 02:50:07 AM 51.8667 176.8500 90° East 480 552 35,000  Level Anchorage Center
Tue 02:51:07 AM 51.8833 177.0833 83° East 470 541 35,000  Level Anchorage Center
Tue 02:52:07 AM 51.8833 177.2667 90° East 480 552 35,000  Level Anchorage Center
Tue 02:53:07 AM 51.9000 177.5000 83° East 480 552 35,000  Level Anchorage Center
Tue 02:54:07 AM 51.9167 177.7000 82° East 480 552 35,000  Level Anchorage Center
Tue 02:55:07 AM 51.9333 177.9333 83° East 480 552 35,000  Level Anchorage Center
Tue 02:56:07 AM 51.9500 178.1667 83° East 480 552 35,000  Level Anchorage Center
Tue 02:57:07 AM 51.9500 178.3500 90° East 470 541 35,000  Level Anchorage Center
Tue 02:58:07 AM 51.9667 178.5833 83° East 490 564 35,000  Level Anchorage Center
Tue 02:59:07 AM 51.9667 178.7833 90° East 470 541 35,000  Level Anchorage Center
Tue 03:00:07 AM 51.9833 179.0167 83° East 480 552 35,000  Level Anchorage Center
Tue 03:01:07 AM 52.0000 179.2000 82° East 480 552 35,000  Level Anchorage Center
Tue 03:02:07 AM 52.0000 179.4333 90° East 480 552 35,000  Level Anchorage Center
Tue 03:03:07 AM 52.0167 179.6167 82° East 470 541 35,000  Level Anchorage Center
Tue 03:04:07 AM 52.0167 179.8500 90° East 480 552 35,000  Level Anchorage Center
Tue 03:05:08 AM 52.0333 -179.9000 84° East 470 541 35,000  Level Anchorage Center
Tue 03:06:07 AM 52.0333 -179.7000 90° East 470 541 35,000  Level Anchorage Center
Tue 03:11:02 AM 52.0833 -178.6333 87° East 478 550 35,000  Level Anchorage Center
Tue 03:20:38 AM 52.1167 -176.5833 89° East 475 547 35,000  Level Anchorage Center
Tue 03:30:15 AM 52.1167 -174.5667 91° East 471 542 35,000  Level Anchorage Center
Tue 03:39:50 AM 52.0833 -172.5333 92° East 467 537 35,000  Level Anchorage Center
Tue 03:49:26 AM 52.0167 -170.5167 93° East 472 543 35,000  Level Anchorage Center
Tue 03:53:04 AM 52.0000 -170.0000 86° East 473 544 35,000  Level Anchorage Center
Tue 03:59:07 AM 52.0500 -168.5000 87° East 476 548 35,000  Level Anchorage Center
Tue 04:08:39 AM 52.1000 -166.4333 89° East 487 560 35,000  Level Anchorage Center
Tue 04:23:51 AM 52.0833 -163.1333 91° East 486 559 35,000  Level Oakland Oceanic (ODAPS)
Tue 04:32:58 AM 52.0333 -161.1833 95° East 300 345 35,000  Level Anchorage Center
Tue 04:33:00 AM 52.0393 -161.1176 93° East 486 559 35,000  Level FlightAware Transoceanic
Tue 04:33:59 AM 52.0167 -160.9500 97° East 450 518 35,000  Level Anchorage Center
Tue 04:37:43 AM 52.0000 -160.1000 90° East 479 551 35,000  Level Oakland Oceanic (ODAPS)
Tue 04:38:15 AM 52.0000 -160.0000 95° East 496 571 35,000  Level Oakland Oceanic (ODAPS)
Tue 04:52:47 AM 51.8000 -157.0500 98° East 499 574 35,000  Level Oakland Oceanic (ODAPS)
Tue 05:05:41 AM 51.5000 -154.0000 100° East 508 585 35,000  Level Oakland Oceanic (ODAPS)
Tue 05:19:32 AM 51.1333 -150.9333 102° East 510 587 35,000  Level Oakland Oceanic (ODAPS)
Tue 05:23:47 AM 51.0000 -150.0000 95° East 531 611 35,000  Level Oakland Oceanic (ODAPS)
Tue 05:33:17 AM 50.8500 -147.8167 97° East 536 617 35,000  Level Oakland Oceanic (ODAPS)
Tue 05:47:09 AM 50.5833 -144.6833 99° East 541 623 35,000  Level Oakland Oceanic (ODAPS)
Tue 06:01:02 AM 50.2000 -141.4667 101° East 560 644 35,000  Level Oakland Oceanic (ODAPS)
Tue 06:07:22 AM 50.0000 -140.0000 99° East 581 669 35,000  Level Oakland Oceanic (ODAPS)
Tue 06:14:53 AM 49.8000 -138.1167 100° East 600 690 35,000  Level Oakland Oceanic (ODAPS)
Tue 06:28:46 AM 49.3500 -134.6500 103° East 624 718 35,000  Level Oakland Oceanic (ODAPS)
Tue 06:39:38 AM 48.9667 -131.8167 93° East 610 702 35,000  Level Vancouver Center
Tue 06:40:00 AM 48.9779 -131.6246 93° East 624 718 35,000  Level FlightAware Transoceanic
Tue 06:40:38 AM 48.9667 -131.5667 90° East 630 725 35,000  Level Vancouver Center
Tue 06:41:00 AM 48.9693 -131.3496 93° East 624 718 35,000  Level FlightAware Transoceanic
Tue 06:41:38 AM 48.9500 -131.3000 95° East 640 736 35,000  Level Vancouver Center
Tue 06:42:00 AM 48.9600 -131.0748 93° East 624 718 35,000  Level FlightAware Transoceanic
Tue 06:42:38 AM 48.9167 -131.0167 100° East 630 725 35,000  Level Vancouver Center
Tue 06:43:00 AM 48.9521 -130.8561 93° East  Level FlightAware Approximate
Tue 06:43:38 AM 48.9000 -130.7667 96° East 640 736 35,000  Level Vancouver Center
Tue 06:44:00 AM 48.9438 -130.6375 93° East  Level FlightAware Approximate
Tue 06:44:38 AM 48.8667 -130.5000 101° East 630 725 35,000  Level Vancouver Center
Tue 06:45:38 AM 48.8167 -130.2500 107° East 630 725 35,000  Level Vancouver Center
Tue 06:46:38 AM 48.7667 -129.9833 106° East 630 725 35,000  Level Vancouver Center
Tue 06:47:38 AM 48.7500 -129.7333 96° East 630 725 35,000  Level Vancouver Center
Tue 06:48:38 AM 48.7167 -129.4667 101° East 630 725 35,000  Level Vancouver Center
Tue 06:49:38 AM 48.6667 -129.2167 107° East 630 725 35,000  Level Vancouver Center
Tue 06:50:38 AM 48.6167 -128.9333 105° East 630 725 35,000  Level Vancouver Center
Tue 06:51:38 AM 48.5833 -128.7000 102° East 630 725 35,000  Level Vancouver Center
Tue 06:52:38 AM 48.5667 -128.4333 95° East 620 713 35,000  Level Vancouver Center
Tue 06:53:38 AM 48.5167 -128.1833 107° East 620 713 35,000  Level Vancouver Center
Tue 06:54:38 AM 48.4833 -127.9333 101° East 620 713 35,000  Level Vancouver Center
Tue 06:55:38 AM 48.4333 -127.6667 106° East 620 713 35,000  Level Vancouver Center
Tue 07:01:25 AM 48.0982 -126.2640 106° East 620 713 35,000  Level FlightAware ADS-B
Tue 07:01:59 AM 48.0592 -126.1330 114° Southeast 620 713 35,000  Level FlightAware ADS-B
Tue 07:02:30 AM 48.0223 -126.0100 114° Southeast 619 712 35,000  Level FlightAware ADS-B
Tue 07:03:03 AM 47.9834 -125.8820 114° Southeast 620 713 35,000  Level FlightAware ADS-B
Tue 07:03:33 AM 47.9476 -125.7640 114° Southeast 621 715 35,000  Level FlightAware ADS-B
Tue 07:04:04 AM 47.9113 -125.6460 115° Southeast 621 715 35,000  Level FlightAware ADS-B
Tue 07:04:34 AM 47.8749 -125.5280 115° Southeast 622 716 35,000  Level FlightAware ADS-B
Tue 07:05:05 AM 47.8383 -125.4100 115° Southeast 622 716 35,000  Level FlightAware ADS-B
Tue 07:05:36 AM 47.8011 -125.2910 115° Southeast 622 716 35,000  Level FlightAware ADS-B
Tue 07:06:06 AM 47.7639 -125.1710 115° Southeast 622 716 35,000  Level FlightAware ADS-B
Tue 07:06:17 AM 47.7507 -125.1293 115° Southeast 622 716 35,000  Level FlightAware ADS-B
Tue 07:06:37 AM 47.7270 -125.0540 115° Southeast 621 715 35,000  Level FlightAware ADS-B
Tue 07:07:07 AM 47.6903 -124.9380 115° Southeast 620 713 35,000  Level FlightAware ADS-B
Tue 07:07:15 AM 47.6812 -124.9089 115° Southeast 621 715 35,000  Level FlightAware ADS-B
Tue 07:07:38 AM 47.6531 -124.8200 115° Southeast 620 713 35,000  Level FlightAware ADS-B
Tue 07:07:56 AM 47.6349 -124.7631 115° Southeast 620 713 35,000  Level FlightAware ADS-B
Tue 07:08:11 AM 47.6119 -124.6910 115° Southeast 620 713 35,000  Level FlightAware ADS-B
Tue 07:08:42 AM 47.5748 -124.5750 115° Southeast 620 713 35,000  Level FlightAware ADS-B
Tue 07:08:58 AM 47.5547 -124.5126 116° Southeast 619 712 35,000  Level FlightAware ADS-B
Tue 07:09:12 AM 47.5377 -124.4600 116° Southeast 619 712 35,000  Level FlightAware ADS-B
Tue 07:09:42 AM 47.5006 -124.3450 115° Southeast 619 712 35,000  Level FlightAware ADS-B
Tue 07:10:12 AM 47.4632 -124.2300 116° Southeast 619 712 35,000  Level FlightAware ADS-B
Tue 07:10:18 AM 47.4671 -124.2418 296° West 619 712 35,000  Level FlightAware ADS-B
Tue 07:10:42 AM 47.4258 -124.1150 116° Southeast 619 712 35,000  Level FlightAware ADS-B
Tue 07:10:53 AM 47.4147 -124.0815 116° Southeast 620 713 35,000  Level FlightAware ADS-B
Tue 07:11:13 AM 47.3880 -124.0000 116° Southeast 620 713 35,000  Level FlightAware ADS-B
Tue 07:11:38 AM 47.3562 -123.9032 116° Southeast 619 712 35,000  Level FlightAware ADS-B
Tue 07:11:43 AM 47.3504 -123.8850 115° Southeast 619 712 35,000  Level FlightAware ADS-B
Tue 07:12:14 AM 47.3122 -123.7700 116° Southeast 620 713 35,000  Level FlightAware ADS-B
Tue 07:12:39 AM 47.2800 -123.6732 116° Southeast 620 713 35,000  Level FlightAware ADS-B
Tue 07:12:46 AM 47.2717 -123.6480 116° Southeast 620 713 35,000  Level FlightAware ADS-B
Tue 07:13:16 AM 47.2335 -123.5330 116° Southeast 620 713 35,000  Level FlightAware ADS-B
Tue 07:13:47 AM 47.1950 -123.4180 116° Southeast 621 715 35,000  Level FlightAware ADS-B
Tue 07:14:17 AM 47.1562 -123.3030 116° Southeast 620 713 35,000  Level FlightAware ADS-B
Tue 07:14:18 AM 47.1549 -123.2988 115° Southeast 620 713 35,000  Level FlightAware ADS-B
Tue 07:14:47 AM 47.1177 -123.1890 116° Southeast 620 713 35,000  Level FlightAware ADS-B
Tue 07:15:19 AM 47.0778 -123.0720 117° Southeast 621 715 35,000  Level FlightAware ADS-B
Tue 07:15:49 AM 47.0388 -122.9580 117° Southeast 621 715 35,000  Level FlightAware ADS-B
Tue 07:15:59 AM 47.0263 -122.9212 116° Southeast 621 715 35,000  Level FlightAware ADS-B
Tue 07:16:21 AM 46.9983 -122.8400 117° Southeast 621 715 35,000  Level FlightAware ADS-B
Tue 07:16:51 AM 46.9590 -122.7250 117° Southeast 621 715 35,000  Level FlightAware ADS-B
Tue 07:16:57 AM 46.9551 -122.7138 117° Southeast 621 715 35,000  Level FlightAware ADS-B
Tue 07:17:22 AM 46.9196 -122.6110 117° Southeast 623 717 35,000  Level FlightAware ADS-B
Tue 07:17:39 AM 46.8967 -122.5451 117° Southeast 624 718 35,000  Level FlightAware ADS-B
Tue 07:17:52 AM 46.8805 -122.4990 117° Southeast 624 718 35,000  Level FlightAware ADS-B
Tue 07:18:23 AM 46.8398 -122.3810 117° Southeast 625 719 35,000  Level FlightAware ADS-B
Tue 07:18:53 AM 46.7996 -122.2670 117° Southeast 625 719 35,000  Level FlightAware ADS-B
Tue 07:19:24 AM 46.7599 -122.1540 117° Southeast 625 719 35,000  Level FlightAware ADS-B
Tue 07:19:54 AM 46.7201 -122.0410 117° Southeast 625 719 35,000  Level FlightAware ADS-B
Tue 07:20:24 AM 46.6802 -121.9290 117° Southeast 623 717 35,000  Level FlightAware ADS-B
Tue 07:20:54 AM 46.6400 -121.8160 117° Southeast 623 717 35,000  Level FlightAware ADS-B
Tue 07:21:25 AM 46.5998 -121.7030 117° Southeast 622 716 35,000  Level FlightAware ADS-B
Tue 07:21:55 AM 46.5588 -121.5890 118° Southeast 624 718 35,000  Level FlightAware ADS-B
Tue 07:22:27 AM 46.5161 -121.4700 118° Southeast 627 722 35,000  Level FlightAware ADS-B
Tue 07:23:01 AM 46.4701 -121.3440 118° Southeast 627 722 35,000  Level FlightAware ADS-B
Tue 07:23:32 AM 46.4293 -121.2320 118° Southeast 626 720 35,000  Level FlightAware ADS-B
Tue 07:24:02 AM 46.3886 -121.1200 118° Southeast 627 722 35,000  Level FlightAware ADS-B
Tue 07:24:37 AM 46.3410 -120.9910 118° Southeast 624 718 35,000  Level FlightAware ADS-B
Tue 07:25:07 AM 46.2999 -120.8800 118° Southeast 622 716 35,000  Level FlightAware ADS-B
Tue 07:25:38 AM 46.2583 -120.7670 118° Southeast 623 717 35,000  Level FlightAware ADS-B
Tue 07:26:13 AM 46.2104 -120.6380 118° Southeast 622 716 35,000  Level FlightAware ADS-B
Tue 07:26:53 AM 46.1597 -120.5031 118° Southeast 622 716 35,000  Level Seattle Center
Tue 07:27:53 AM 46.0778 -120.2844 118° Southeast 621 715 35,000  Level Seattle Center
Tue 07:28:53 AM 46.0108 -120.1097 119° Southeast 621 715 35,000  Level Seattle Center
Tue 07:29:53 AM 45.9286 -119.8922 118° Southeast 620 713 35,000  Level Seattle Center
Tue 07:30:54 AM 45.8450 -119.6756 119° Southeast 619 712 35,000  Level Seattle Center
Tue 07:31:54 AM 45.7614 -119.4608 119° Southeast 617 710 35,000  Level Seattle Center
Tue 07:32:54 AM 45.6761 -119.2439 119° Southeast 622 716 35,000  Level Seattle Center
Tue 07:33:54 AM 45.5908 -119.0283 119° Southeast 623 717 35,000  Level Seattle Center
Tue 07:34:54 AM 45.5056 -118.8153 120° Southeast 619 712 35,000  Level Seattle Center
Tue 07:35:54 AM 45.4206 -118.6014 119° Southeast 619 712 35,000  Level Seattle Center
Tue 07:36:54 AM 45.3356 -118.3903 120° Southeast 616 709 35,000  Level Seattle Center
Tue 07:37:54 AM 45.2497 -118.1800 120° Southeast 616 709 35,000  Level Seattle Center
Tue 07:38:55 AM 45.1519 -117.9417 120° Southeast 614 707 35,000  Level Seattle Center
Tue 07:39:55 AM 45.0658 -117.7336 120° Southeast 614 707 35,000  Level Seattle Center
Tue 07:40:55 AM 44.9792 -117.5261 121° Southeast 615 708 35,000  Level Seattle Center
Tue 07:41:55 AM 44.8931 -117.3194 120° Southeast 613 705 35,000  Level Seattle Center
Tue 07:42:36 AM 44.8422 -117.1967 120° Southeast 612 704 35,000  Level Salt Lake Center
Tue 07:43:36 AM 44.7556 -116.9908 121° Southeast 613 705 35,000  Level Salt Lake Center
Tue 07:44:37 AM 44.6678 -116.7853 121° Southeast 615 708 35,000  Level Salt Lake Center
Tue 07:45:37 AM 44.5797 -116.5822 121° Southeast 613 705 35,000  Level Salt Lake Center
Tue 07:46:37 AM 44.4914 -116.3794 121° Southeast 613 705 35,000  Level Salt Lake Center
Tue 07:47:38 AM 44.4058 -116.1839 121° Southeast 612 704 35,000  Level Salt Lake Center
Tue 07:48:38 AM 44.3050 -115.9522 121° Southeast 608 700 35,000  Level Salt Lake Center
Tue 07:49:38 AM 44.2153 -115.7514 122° Southeast 611 703 35,000  Level Salt Lake Center
Tue 07:55:55 AM 43.6426 -114.4895 122° Southeast 603 694 35,000  Level FlightAware ADS-B (KBTF)
Tue 07:56:25 AM 43.5975 -114.3928 123° Southeast 600 690 35,000  Level FlightAware ADS-B (KBTF)
Tue 07:57:05 AM 43.5381 -114.2652 123° Southeast 600 690 35,000  Level FlightAware ADS-B (KBTF)
Tue 07:57:38 AM 43.4878 -114.1580 123° Southeast 598 688 35,000  Level FlightAware ADS-B (KBTF)
Tue 07:58:17 AM 43.4288 -114.0326 123° Southeast 596 686 35,000  Level FlightAware ADS-B (KBTF)
Tue 07:58:57 AM 43.3694 -113.9069 123° Southeast 591 680 35,000  Level FlightAware ADS-B (KBTF)
Tue 07:59:40 AM 43.3066 -113.7749 123° Southeast 576 663 35,000  Level FlightAware ADS-B (KBTF)
Tue 08:00:19 AM 43.2487 -113.6534 123° Southeast 574 661 35,000  Level FlightAware ADS-B (KBTF)
Tue 08:01:00 AM 43.1894 -113.5297 123° Southeast 572 658 35,000  Level FlightAware ADS-B (KBTF)
Tue 08:01:46 AM 43.1229 -113.3913 123° Southeast 570 656 35,000  Level FlightAware ADS-B (KBTF)
Tue 08:02:26 AM 43.0644 -113.2701 123° Southeast 568 654 35,000  Level FlightAware ADS-B (KBTF)
Tue 08:03:11 AM 42.9987 -113.1348 124° Southeast 566 651 35,000  Level FlightAware ADS-B (KBTF)
Tue 08:03:50 AM 42.9413 -113.0171 124° Southeast 565 650 35,000  Level FlightAware ADS-B (KBTF)
Tue 08:04:20 AM 42.8978 -112.9281 124° Southeast 564 649 35,000  Level FlightAware ADS-B
Tue 08:04:51 AM 42.8527 -112.8362 124° Southeast 563 648 35,000  Level FlightAware ADS-B (KBTF)
Tue 08:05:31 AM 42.7950 -112.7188 124° Southeast 564 649 35,000  Level FlightAware ADS-B (KBTF)
Tue 08:06:01 AM 42.7500 -112.6278 124° Southeast 561 646 35,000  Level FlightAware ADS-B
Tue 08:06:32 AM 42.7061 -112.5391 124° Southeast 561 646 35,000 592 Level FlightAware ADS-B (KBTF)
Tue 08:07:12 AM 42.6476 -112.4213 124° Southeast 561 646 35,700 1,301 Climbing FlightAware ADS-B (KBTF)
Tue 08:07:55 AM 42.5836 -112.2933 124° Southeast 554 638 36,800 1,040 Climbing FlightAware ADS-B
Tue 08:08:27 AM 42.5389 -112.2041 124° Southeast 553 636 37,000 128 Climbing FlightAware ADS-B (KBTF)
Tue 08:09:29 AM 42.4485 -112.0245 124° Southeast 550 633 37,000  Level FlightAware ADS-B
Tue 08:10:08 AM 42.3915 -111.9114 124° Southeast 549 632 37,000  Level FlightAware ADS-B
Tue 08:11:10 AM 42.3020 -111.7356 124° Southeast 550 633 37,000  Level FlightAware ADS-B
Tue 08:11:49 AM 42.2454 -111.6253 125° Southeast 546 628 37,000  Level FlightAware ADS-B
Tue 08:15:18 AM 41.9451 -111.0432 125° Southeast 553 636 37,000  Level FlightAware ADS-B
Tue 08:19:05 AM 41.6089 -110.4055 125° Southeast 550 633 37,000  Level FlightAware ADS-B
Tue 08:20:02 AM 41.5231 -110.2447 125° Southeast 551 634 37,000  Level FlightAware ADS-B
Tue 08:21:05 AM 41.4304 -110.0720 126° Southeast 550 633 37,000  Level FlightAware ADS-B
Tue 08:22:19 AM 41.3605 -109.9427 126° Southeast 550 633 37,000  Level FlightAware ADS-B
Tue 08:23:26 AM 41.2216 -109.6870 126° Southeast 549 632 37,000  Level FlightAware ADS-B (EDXW / GWT)
Tue 08:24:49 AM 41.1045 -109.4727 126° Southeast 544 626 37,000  Level FlightAware ADS-B
Tue 08:25:33 AM 41.0336 -109.3442 126° Southeast 540 621 37,000  Level FlightAware ADS-B (EDXW / GWT)
Tue 08:26:08 AM 41.0122 -109.3053 126° Southeast 532 612 37,000  Level FlightAware ADS-B (EDXW / GWT)
Tue 08:26:39 AM 40.9386 -109.1719 126° Southeast 532 612 37,000  Level FlightAware ADS-B (KGUC)
Tue 08:27:13 AM 40.8928 -109.0895 126° Southeast 532 612 37,000  Level FlightAware ADS-B (EDXW / GWT)
Tue 08:27:43 AM 40.8495 -109.0118 126° Southeast 532 612 37,000  Level FlightAware ADS-B (EDXW / GWT)
Tue 08:28:14 AM 40.8030 -108.9284 126° Southeast 534 615 37,000  Level FlightAware ADS-B (EDXW / GWT)
Tue 08:28:44 AM 40.7560 -108.8445 126° Southeast 537 618 37,000  Level FlightAware ADS-B
Tue 08:29:14 AM 40.7134 -108.7687 127° Southeast 536 617 37,000  Level FlightAware ADS-B (EDXW / GWT)
Tue 08:29:56 AM 40.6496 -108.6553 127° Southeast 539 620 37,000  Level FlightAware ADS-B
Tue 08:30:36 AM 40.5919 -108.5531 127° Southeast 541 623 37,000  Level FlightAware ADS-B
Tue 08:31:16 AM 40.5297 -108.4436 127° Southeast 540 621 37,000  Level FlightAware ADS-B
Tue 08:31:57 AM 40.4689 -108.3365 127° Southeast 537 618 37,000  Level FlightAware ADS-B
Tue 08:32:29 AM 40.4216 -108.2536 127° Southeast 538 619 37,000  Level FlightAware ADS-B
Tue 08:32:59 AM 40.3784 -108.1780 127° Southeast 538 619 37,000  Level FlightAware ADS-B (KGUC)
Tue 08:33:29 AM 40.3330 -108.0989 127° Southeast 538 619 37,000  Level FlightAware ADS-B
Tue 08:34:17 AM 40.2607 -107.9731 127° Southeast 537 618 37,000  Level FlightAware ADS-B
Tue 08:34:57 AM 40.2015 -107.8707 127° Southeast 536 617 37,000  Level FlightAware ADS-B
Tue 08:35:29 AM 40.1527 -107.7863 127° Southeast 536 617 37,000  Level FlightAware ADS-B
Tue 08:36:17 AM 40.0842 -107.6682 127° Southeast 537 618 37,000  Level FlightAware ADS-B
Tue 08:36:57 AM 40.0222 -107.5620 127° Southeast 536 617 37,000  Level FlightAware ADS-B
Tue 08:37:30 AM 39.9725 -107.4768 127° Southeast 535 616 37,000  Level FlightAware ADS-B (EDXW / GWT)
Tue 08:38:17 AM 39.9020 -107.3568 127° Southeast 536 617 37,000  Level FlightAware ADS-B
Tue 08:38:57 AM 39.8414 -107.2540 128° Southeast 536 617 37,000  Level FlightAware ADS-B
Tue 08:39:28 AM 39.7939 -107.1737 128° Southeast 536 617 37,000  Level FlightAware ADS-B (EGHH / BOH)
Tue 08:39:59 AM 39.7476 -107.0953 128° Southeast 534 615 37,000  Level FlightAware ADS-B (KGUC)
Tue 08:40:29 AM 39.7077 -107.0280 128° Southeast 532 612 37,000  Level FlightAware ADS-B (EGHH / BOH)
Tue 08:41:01 AM 39.6556 -106.9406 128° Southeast 530 610 37,000  Level FlightAware ADS-B (KGUC)
Tue 08:41:33 AM 39.6072 -106.8592 128° Southeast 532 612 37,000  Level FlightAware ADS-B (EGHH / BOH)
Tue 08:42:07 AM 39.5558 -106.7733 128° Southeast 532 612 37,000  Level FlightAware ADS-B (EDXW / GWT)
Tue 08:42:37 AM 39.5105 -106.6979 128° Southeast 530 610 37,000  Level FlightAware ADS-B (EDXW / GWT)
Tue 08:43:13 AM 39.4600 -106.6137 128° Southeast 530 610 37,000  Level FlightAware ADS-B (EGHH / BOH)
Tue 08:43:46 AM 39.4128 -106.5353 128° Southeast 530 610 37,000  Level FlightAware ADS-B
Tue 08:44:27 AM 39.3457 -106.4243 128° Southeast 529 609 37,000  Level FlightAware ADS-B
Tue 08:45:06 AM 39.2929 -106.3373 128° Southeast 530 610 37,000  Level FlightAware ADS-B
Tue 08:45:36 AM 39.2436 -106.2561 128° Southeast 530 610 37,000  Level FlightAware ADS-B (EGHH / BOH)
Tue 08:46:14 AM 39.1853 -106.1606 128° Southeast 527 606 37,000  Level FlightAware ADS-B
Tue 08:46:55 AM 39.1246 -106.0611 128° Southeast 530 610 37,000  Level FlightAware ADS-B (EGHH / BOH)
Tue 08:47:35 AM 39.0613 -105.9585 128° Southeast 528 608 37,000  Level FlightAware ADS-B (EGHH / BOH)
Tue 08:48:14 AM 39.0030 -105.8635 128° Southeast 528 608 37,000  Level FlightAware ADS-B
Tue 08:48:57 AM 38.9408 -105.7626 128° Southeast 525 604 37,000  Level FlightAware ADS-B (EGHH / BOH)
Tue 08:49:36 AM 38.8782 -105.6613 128° Southeast 524 603 37,000  Level FlightAware ADS-B (EGHH / BOH)
Tue 08:50:10 AM 38.8278 -105.5803 129° Southeast 522 601 37,000  Level FlightAware ADS-B
Tue 08:50:58 AM 38.7561 -105.4653 129° Southeast 522 601 37,000  Level FlightAware ADS-B (EGHH / BOH)
Tue 08:51:45 AM 38.6844 -105.3506 129° Southeast 523 602 37,000  Level FlightAware ADS-B (EGHH / BOH)
Tue 08:52:26 AM 38.6223 -105.2517 129° Southeast 525 604 37,000  Level FlightAware ADS-B (EGHH / BOH)
Tue 08:52:56 AM 38.6026 -105.2205 129° Southeast 524 603 37,000  Level FlightAware ADS-B
Tue 08:53:29 AM 38.5341 -105.1113 129° Southeast 526 605 37,000  Level FlightAware ADS-B (EGHH / BOH)
Tue 08:54:08 AM 38.4736 -105.0157 129° Southeast 527 606 37,000  Level FlightAware ADS-B (EGHH / BOH)
Tue 08:54:50 AM 38.4032 -104.9044 129° Southeast 527 606 37,000  Level FlightAware ADS-B (EGHH / BOH)
Tue 08:55:31 AM 38.3398 -104.8046 129° Southeast 528 608 37,000  Level FlightAware ADS-B (EGHH / BOH)
Tue 08:56:09 AM 38.2852 -104.7192 129° Southeast 530 610 37,000  Level FlightAware ADS-B (EGHH / BOH)
Tue 08:56:51 AM 38.2172 -104.6129 129° Southeast 532 612 37,000  Level FlightAware ADS-B (EGHH / BOH)
Tue 08:57:26 AM 38.1643 -104.5304 129° Southeast 535 616 37,000  Level FlightAware ADS-B (EGHH / BOH)
Tue 08:58:05 AM 38.1078 -104.4425 129° Southeast 535 616 37,000  Level FlightAware ADS-B (EGHH / BOH)
Tue 08:58:49 AM 38.0325 -104.3259 129° Southeast 532 612 37,000  Level FlightAware ADS-B (EGHH / BOH)
Tue 08:59:31 AM 37.9692 -104.2282 129° Southeast 522 601 37,000  Level FlightAware ADS-B (EGHH / BOH)
Tue 09:00:12 AM 37.9044 -104.1284 129° Southeast 521 600 37,000  Level FlightAware ADS-B (EGHH / BOH)
Tue 09:00:54 AM 37.8410 -104.0310 129° Southeast 518 596 37,000  Level FlightAware ADS-B (EGHH / BOH)
Tue 09:01:33 AM 37.7828 -103.9420 130° Southeast 519 597 37,000  Level FlightAware ADS-B (EGHH / BOH)
Tue 09:02:15 AM 37.7208 -103.8474 130° Southeast 519 597 37,000  Level FlightAware ADS-B (EGHH / BOH)
Tue 09:02:57 AM 37.6532 -103.7444 130° Southeast 519 597 37,000  Level FlightAware ADS-B (EGHH / BOH)
Tue 09:03:38 AM 37.5961 -103.6577 130° Southeast 520 598 37,000  Level FlightAware ADS-B (EGHH / BOH)
Tue 09:04:17 AM 37.5380 -103.5699 130° Southeast 519 597 37,000  Level FlightAware ADS-B (EGHH / BOH)
Tue 09:05:22 AM 37.4436 -103.4272 130° Southeast 518 596 37,000  Level Albuquerque Center
Tue 09:06:23 AM 37.3411 -103.2719 130° Southeast 515 593 37,000  Level Albuquerque Center
Tue 09:07:23 AM 37.2556 -103.1378 129° Southeast 513 590 37,000  Level Albuquerque Center
Tue 09:08:24 AM 37.1692 -103.0042 129° Southeast 514 592 37,000  Level Albuquerque Center
Tue 09:09:25 AM 37.0822 -102.8722 130° Southeast 512 589 37,000  Level Albuquerque Center
Tue 09:10:26 AM 36.9828 -102.7186 129° Southeast 508 585 37,000  Level Albuquerque Center
Tue 09:11:26 AM 36.8967 -102.5881 129° Southeast 508 585 37,000  Level Albuquerque Center
Tue 09:12:27 AM 36.8014 -102.4442 130° Southeast 510 587 37,000  Level Albuquerque Center
Tue 09:13:28 AM 36.7131 -102.3100 129° Southeast 505 581 37,000  Level Albuquerque Center
Tue 09:14:29 AM 36.6208 -102.1700 129° Southeast 507 583 37,000  Level Albuquerque Center
Tue 09:15:29 AM 36.5328 -102.0372 130° Southeast 510 587 37,000  Level Albuquerque Center
Tue 09:16:30 AM 36.4419 -101.9033 130° Southeast 508 585 37,000  Level Albuquerque Center
Tue 09:17:31 AM 36.3517 -101.7689 130° Southeast 507 583 37,000  Level Albuquerque Center
Tue 09:18:32 AM 36.2617 -101.6358 130° Southeast 505 581 37,000  Level Albuquerque Center
Tue 09:19:33 AM 36.1714 -101.5033 130° Southeast 502 578 37,000  Level Albuquerque Center
Tue 09:20:33 AM 36.0808 -101.3678 130° Southeast 506 582 37,000  Level Albuquerque Center
Tue 09:21:34 AM 35.9889 -101.2319 130° Southeast 511 588 37,000  Level Albuquerque Center
Tue 09:22:35 AM 35.8975 -101.0992 130° Southeast 507 583 37,000  Level Albuquerque Center
Tue 09:23:36 AM 35.7917 -100.9461 130° Southeast 510 587 37,000  Level Albuquerque Center
Tue 09:24:37 AM 35.7136 -100.8314 130° Southeast 509 586 37,000  Level Albuquerque Center
Tue 09:25:38 AM 35.6219 -100.6992 130° Southeast 507 583 37,000  Level Albuquerque Center
Tue 09:26:39 AM 35.5178 -100.5483 130° Southeast 509 586 37,000  Level Albuquerque Center
Tue 09:27:39 AM 35.4250 -100.4161 131° Southeast 511 588 37,000  Level Albuquerque Center
Tue 09:28:40 AM 35.3306 -100.2836 131° Southeast 515 593 37,000  Level Albuquerque Center
Tue 09:29:41 AM 35.2383 -100.1500 130° Southeast 514 592 37,000  Level Albuquerque Center
Tue 09:30:42 AM 35.1436 -100.0175 131° Southeast 517 595 37,000  Level Albuquerque Center
Tue 09:31:43 AM 35.0497 -99.8861 131° Southeast 515 593 37,000  Level Albuquerque Center
Tue 09:32:44 AM 34.9611 -99.7600 131° Southeast 501 577 37,000 -252 Level Albuquerque Center
Tue 09:33:42 AM 34.8728 -99.6375 131° Southeast 486 559 36,500 -857 Descending Fort Worth Center
Tue 09:34:43 AM 34.7825 -99.5111 131° Southeast 493 567 35,300 -1,171 Descending Fort Worth Center
Tue 09:35:45 AM 34.6919 -99.3886 132° Southeast 488 562 34,100 -1,073 Descending Fort Worth Center
Tue 09:36:46 AM 34.6025 -99.2644 131° Southeast 486 559 33,100 -1,033 Descending Fort Worth Center
Tue 09:37:47 AM 34.4950 -99.1161 131° Southeast 487 560 32,000 -927 Descending Fort Worth Center
Tue 09:38:49 AM 34.4061 -98.9947 132° Southeast 483 556 31,200 -732 Descending Fort Worth Center
Tue 09:39:50 AM 34.3189 -98.8764 132° Southeast 475 547 30,500 -829 Descending Fort Worth Center
Tue 09:40:52 AM 34.2336 -98.7575 131° Southeast 470 541 29,500 -1,317 Descending Fort Worth Center
Tue 09:41:53 AM 34.1489 -98.6411 131° Southeast 463 533 27,800 -1,820 Descending Fort Worth Center
Tue 09:42:54 AM 34.0606 -98.5253 133° Southeast 450 518 25,800 -1,756 Descending Fort Worth Center
Tue 09:43:56 AM 33.9797 -98.4147 131° Southeast 440 506 24,200 -1,366 Descending Fort Worth Center
Tue 09:44:57 AM 33.8931 -98.2975 132° Southeast 434 499 23,000 -1,180 Descending Fort Worth Center
Tue 09:45:58 AM 33.8200 -98.1997 132° Southeast 408 470 21,800 -1,220 Descending Fort Worth Center
Tue 09:47:00 AM 33.7397 -98.0917 132° Southeast 410 472 20,500 -1,366 Descending Fort Worth Center
Tue 09:48:01 AM 33.6619 -97.9878 132° Southeast 402 463 19,000 -1,525 Descending Fort Worth Center
Tue 09:49:02 AM 33.5903 -97.8931 132° Southeast 398 458 17,400 -1,707 Descending Fort Worth Center
Tue 09:50:04 AM 33.5100 -97.7886 133° Southeast 407 468 15,500 -974 Descending Fort Worth Center
Tue 09:56:01 AM 33.0805 -97.2861 133° Southeast 347 399 10,600 -719 Descending FlightAware ADS-B
Tue 09:57:01 AM 33.0112 -97.2052 136° Southeast 284 327 10,500 -966 Descending FlightAware ADS-B
Tue 09:57:59 AM 32.9532 -97.1708 153° Southeast 231 266 8,700 -2,118 Descending FlightAware ADS-B
Tue 09:59:00 AM 32.8855 -97.1697 179° South 235 270 6,300 -2,092 Descending FlightAware ADS-B
Tue 09:59:48 AM 32.8523 -97.1698 180° South 239 275 4,900 -1,389 Descending FlightAware ADS-B
Tue 10:00:48 AM 32.8038 -97.1691 179° South 239 275 3,800 -452 Descending FlightAware ADS-B
Tue 10:04:53 AM 32.6947 -97.0560 139° Southeast 160 184 2,600 -237 Descending FlightAware ADS-B
Tue 10:05:52 AM 32.7470 -97.0556 360° North 155 178 2,600 -356 Level FlightAware ADS-B
Tue 10:06:51 AM 32.7897 -97.0553 360° North 159 183 1,900 -661 Descending FlightAware ADS-B
Tue 10:07:59 AM 32.8265 -97.0551 360° North 129 148 1,200 -703 Descending FlightAware ADS-B
Tue 10:08:59 AM 32.8714 -97.0549 360° North 127 146 400 -957 Descending FlightAware ADS-B
Tue 10:09:08 AM 32.8745 -97.0549 360° North 127 146 100 -2,000 Descending FlightAware ADS-B

Login

Don't have an account? Register now (free) for customized features, flight alerts, and more!